Clontarf, Minnesota
Current Conditions -  °F | °C
As of 8:54 PM on Friday 21 Nov 2014 (Local Time) from KBBB Reporting Station
Clear Clear  
Wind Chill: 20°   Ceiling: Unl
Heat Index: 28°   Visibility: 10mi
Dew Point: 25°   Wind: 9mph
Humidity: 86%   Direction: 200°SSW
Pressure: 29.81"   Gusts: NA
Location:  45.38°N, 95.68°W
Report Text: KBBB 220254Z AUTO 20008KT 10SM CLR M02/M04 A2981 RMK AO2
Loading
Personal Weather Stations






























Interactive Weather Map New forecast layout! Learn more

10-Day Weather Forecast

Advertisements
Track Severe Weather on mobile